Hatboro, Pennsylvania
Current Conditions -  °F | °C
As of 9:40 PM on Sunday 25 Jan 2015 (Local Time) from KPNE Reporting Station
Overcast Overcast  
Wind Chill: 29°   Ceiling: 3700
Heat Index: 37°   Visibility: 10mi
Dew Point: 23°   Wind: 12mph
Humidity: 57%   Direction: 40°NE
Pressure: 29.95"   Gusts: NA
Location:  40.17°N, 75.11°W
Report Text: KPNE 260240Z AUTO 04010KT 10SM FEW027 OVC037 03/M05 A2995 RMK AO2 RAB0155E10 P0000 T00281050 TSNO
Loading
Personal Weather Stations






























Interactive Weather Map New forecast layout! Learn more

10-Day Weather Forecast

Advertisements
Track Severe Weather on mobile